Time;durP1;ratioP1;P1;durP2;ratioP2;P2;SDS_P1;SDS_P2;PMS_P1;PMS_P2;Temp;Humidity;BMP_temperature;BMP_pressure;BME280_temperature;BME280_humidity;BME280_pressure;Samples;Min_cycle;Max_cycle;Signal;HPM_P1;HPM_P2
2023/04/14 00:01:25;;;;;;;0.50;0.40;;;8.30;99.90;;;;;;4987942;28;20767;-76
2023/04/14 00:03:52;;;;;;;0.70;0.55;;;8.40;99.90;;;;;;4984474;28;20315;-78
2023/04/14 00:06:22;;;;;;;1.98;0.55;;;8.50;99.90;;;;;;4985741;28;20222;-77
2023/04/14 00:08:50;;;;;;;0.70;0.50;;;8.50;99.90;;;;;;4980834;28;20217;-77
2023/04/14 00:11:18;;;;;;;0.60;0.50;;;8.60;99.90;;;;;;4988211;28;20224;-77
2023/04/14 00:13:46;;;;;;;0.68;0.55;;;8.40;99.90;;;;;;4988858;28;20227;-76
2023/04/14 00:16:13;;;;;;;0.80;0.45;;;8.40;99.90;;;;;;4980062;28;20203;-76
2023/04/14 00:18:41;;;;;;;0.70;0.43;;;8.40;99.90;;;;;;4981849;28;20214;-77
2023/04/14 00:21:09;;;;;;;0.68;0.50;;;8.40;99.90;;;;;;4983790;28;20218;-77
2023/04/14 00:23:39;;;;;;;0.98;0.60;;;8.40;99.90;;;;;;4983186;28;20273;-78
2023/04/14 00:26:07;;;;;;;0.60;0.40;;;8.40;99.90;;;;;;4977680;28;20221;-77
2023/04/14 00:28:35;;;;;;;0.73;0.65;;;8.50;99.90;;;;;;4987152;28;20309;-77
2023/04/14 00:31:03;;;;;;;0.60;0.52;;;8.50;99.90;;;;;;4987694;28;20232;-76
2023/04/14 00:33:31;;;;;;;0.60;0.60;;;8.50;99.90;;;;;;4986385;28;20234;-77
2023/04/14 00:35:58;;;;;;;0.60;0.40;;;8.50;99.90;;;;;;4985047;28;20244;-76
2023/04/14 00:38:26;;;;;;;0.95;0.85;;;8.50;99.90;;;;;;4981653;28;20207;-74
2023/04/14 00:40:56;;;;;;;0.90;0.40;;;8.50;99.90;;;;;;4987721;28;20210;-75
2023/04/14 00:43:23;;;;;;;0.60;0.50;;;8.40;99.90;;;;;;4988288;28;20236;-74
2023/04/14 00:45:51;;;;;;;0.70;0.57;;;8.30;99.90;;;;;;4986492;28;20209;-74
2023/04/14 00:48:19;;;;;;;0.50;0.40;;;8.30;99.90;;;;;;4990427;28;20201;-74
2023/04/14 00:50:47;;;;;;;0.50;0.30;;;8.20;99.90;;;;;;4981570;28;20292;-74
2023/04/14 00:53:16;;;;;;;0.60;0.50;;;8.10;99.90;;;;;;4987552;28;20214;-74
2023/04/14 00:55:44;;;;;;;0.50;0.40;;;8.10;99.90;;;;;;4986944;28;20259;-74
2023/04/14 00:58:15;;;;;;;0.50;0.40;;;8.10;99.90;;;;;;4994428;28;20208;-74
2023/04/14 01:00:43;;;;;;;0.60;0.50;;;8.10;99.90;;;;;;4994732;28;20212;-77
2023/04/14 01:03:12;;;;;;;1.08;0.40;;;7.90;99.90;;;;;;4994287;28;20241;-74
2023/04/14 01:05:40;;;;;;;0.60;0.40;;;7.80;99.90;;;;;;4994300;28;20202;-74
2023/04/14 01:08:08;;;;;;;0.60;0.40;;;7.90;99.90;;;;;;4994178;28;20221;-74
2023/04/14 01:10:46;;;;;;;1.05;0.65;;;7.80;99.90;;;;;;4994385;28;20309;-75
2023/04/14 01:13:32;;;;;;;0.50;0.40;;;7.90;99.90;;;;;;4990542;28;20279;-75
2023/04/14 01:16:04;;;;;;;0.50;0.40;;;7.90;99.90;;;;;;4988891;28;20209;-74
2023/04/14 01:18:40;;;;;;;0.60;0.40;;;7.70;99.90;;;;;;4993991;28;20213;-74
2023/04/14 01:21:13;;;;;;;0.70;0.60;;;7.20;99.90;;;;;;4994212;28;20244;-75
2023/04/14 01:23:47;;;;;;;0.50;0.30;;;7.00;99.90;;;;;;4993550;28;20309;-74
2023/04/14 01:26:21;;;;;;;0.50;0.40;;;7.00;99.90;;;;;;4993774;28;20213;-75
2023/04/14 01:29:21;;;;;;;0.50;0.40;;;7.10;99.90;;;;;;4986865;28;20670;-75
2023/04/14 01:32:00;;;;;;;0.68;0.60;;;7.30;99.90;;;;;;4975118;28;20643;-75
2023/04/14 01:34:34;;;;;;;0.50;0.40;;;7.40;99.90;;;;;;4991418;28;20674;-74
2023/04/14 01:37:06;;;;;;;0.95;0.63;;;7.50;99.90;;;;;;4993807;28;20666;-74
2023/04/14 01:39:40;;;;;;;0.60;0.40;;;7.50;99.90;;;;;;4993784;28;20293;-74
2023/04/14 01:42:14;;;;;;;0.50;0.40;;;7.60;99.90;;;;;;4994974;28;20210;-74
2023/04/14 01:44:44;;;;;;;1.77;0.70;;;7.50;99.90;;;;;;4995248;28;20575;-75
2023/04/14 01:47:17;;;;;;;0.60;0.50;;;7.50;99.90;;;;;;4994972;28;20642;-75
2023/04/14 01:49:47;;;;;;;0.50;0.40;;;7.50;99.90;;;;;;4995254;28;20204;-75
2023/04/14 01:52:17;;;;;;;0.50;0.40;;;7.50;99.90;;;;;;4986703;28;20197;-74
2023/04/14 01:54:47;;;;;;;0.55;0.40;;;7.50;99.90;;;;;;4986098;28;20311;-76
2023/04/14 01:57:19;;;;;;;0.60;0.40;;;7.50;99.90;;;;;;4994073;28;20227;-73
2023/04/14 01:59:48;;;;;;;0.60;0.50;;;7.60;99.90;;;;;;4990384;28;20236;-75
2023/04/14 02:02:19;;;;;;;0.75;0.55;;;7.70;99.90;;;;;;4993835;28;20281;-75
2023/04/14 02:04:48;;;;;;;0.85;0.40;;;7.70;99.90;;;;;;4993861;28;20272;-75
2023/04/14 02:07:19;;;;;;;0.60;0.55;;;7.70;99.90;;;;;;4993133;28;20308;-74
2023/04/14 02:09:48;;;;;;;0.65;0.43;;;7.70;99.90;;;;;;4985890;28;20231;-73
2023/04/14 02:12:18;;;;;;;0.60;0.40;;;7.80;99.90;;;;;;4993820;28;20610;-73
2023/04/14 02:14:48;;;;;;;0.50;0.40;;;7.80;99.90;;;;;;4991897;28;20222;-74
2023/04/14 02:17:19;;;;;;;0.93;0.82;;;7.70;99.90;;;;;;4993508;28;20291;-73
2023/04/14 02:19:48;;;;;;;0.50;0.30;;;7.70;99.90;;;;;;4993489;28;20205;-74
2023/04/14 02:22:16;;;;;;;0.60;0.50;;;7.50;99.90;;;;;;4993232;28;20206;-77
2023/04/14 02:24:44;;;;;;;0.63;0.47;;;7.30;99.90;;;;;;4993056;28;20303;-75
2023/04/14 02:27:15;;;;;;;0.50;0.43;;;7.20;99.90;;;;;;4992825;28;20314;-76
2023/04/14 02:29:51;;;;;;;0.80;0.50;;;7.10;99.90;;;;;;4990290;28;20252;-76
2023/04/14 02:32:24;;;;;;;0.60;0.40;;;7.00;99.90;;;;;;4992772;28;20283;-74
2023/04/14 02:34:55;;;;;;;0.60;0.40;;;7.10;99.90;;;;;;4990866;28;20243;-74
2023/04/14 02:37:27;;;;;;;0.60;0.60;;;7.20;99.90;;;;;;4979853;28;20332;-74
2023/04/14 02:40:01;;;;;;;0.70;0.68;;;7.30;99.90;;;;;;4979128;28;20290;-75
2023/04/14 02:42:30;;;;;;;0.60;0.45;;;7.30;99.90;;;;;;4981528;28;20212;-75
2023/04/14 02:45:03;;;;;;;1.27;0.60;;;7.30;99.90;;;;;;4977438;28;20303;-74
2023/04/14 02:47:37;;;;;;;0.70;0.60;;;7.40;99.90;;;;;;4980013;28;20256;-73
2023/04/14 02:50:09;;;;;;;1.60;0.80;;;7.30;99.90;;;;;;4978723;28;20217;-74
2023/04/14 02:52:38;;;;;;;1.13;0.77;;;7.20;99.90;;;;;;4978868;28;20213;-74
2023/04/14 02:55:09;;;;;;;0.50;0.43;;;7.30;99.90;;;;;;4980678;28;20312;-74
2023/04/14 02:57:38;;;;;;;0.70;0.50;;;7.40;99.90;;;;;;4978315;28;20291;-74
2023/04/14 03:00:09;;;;;;;0.73;0.60;;;7.30;99.90;;;;;;4976253;28;20272;-73
2023/04/14 03:02:39;;;;;;;0.60;0.60;;;7.30;99.90;;;;;;4974303;28;20233;-74
2023/04/14 03:05:08;;;;;;;0.60;0.50;;;7.30;99.90;;;;;;4983869;28;20222;-74
2023/04/14 03:07:37;;;;;;;1.00;0.80;;;7.30;99.90;;;;;;4991105;28;20229;-75
2023/04/14 03:10:08;;;;;;;2.10;0.70;;;7.20;99.90;;;;;;4982844;28;20731;-74
2023/04/14 03:12:37;;;;;;;0.70;0.55;;;7.20;99.90;;;;;;4989334;28;20232;-74
2023/04/14 03:15:07;;;;;;;0.60;0.50;;;7.30;99.90;;;;;;4977869;28;20224;-74
2023/04/14 03:17:38;;;;;;;0.60;0.50;;;7.20;99.90;;;;;;4975254;28;20261;-75
2023/04/14 03:20:08;;;;;;;0.70;0.50;;;7.20;99.90;;;;;;4979500;28;20200;-74
2023/04/14 03:22:39;;;;;;;0.90;0.68;;;7.20;99.90;;;;;;4989934;28;20285;-74
2023/04/14 03:25:11;;;;;;;0.82;0.70;;;7.10;99.90;;;;;;4986333;28;20250;-74
2023/04/14 03:27:40;;;;;;;0.80;0.73;;;7.00;99.90;;;;;;4980844;28;20693;-74
2023/04/14 03:30:10;;;;;;;0.70;0.70;;;7.00;99.90;;;;;;4982522;28;20232;-74
2023/04/14 03:32:42;;;;;;;0.60;0.50;;;7.00;99.90;;;;;;4992152;28;20290;-78
2023/04/14 03:35:13;;;;;;;0.90;0.70;;;6.90;99.90;;;;;;5010028;23;20784;-64
2023/04/14 03:37:42;;;;;;;1.02;0.80;;;6.90;99.90;;;;;;4990731;28;20216;-64
2023/04/14 03:40:11;;;;;;;1.27;1.17;;;6.90;99.90;;;;;;4990150;28;20200;-63
2023/04/14 03:42:43;;;;;;;0.60;0.40;;;7.00;99.90;;;;;;4988403;28;20212;-64
2023/04/14 03:45:11;;;;;;;1.75;1.40;;;7.00;99.90;;;;;;4987087;28;20220;-64
2023/04/14 03:47:40;;;;;;;0.80;0.65;;;7.10;99.90;;;;;;4989094;28;20262;-64
2023/04/14 03:50:10;;;;;;;1.10;1.00;;;7.20;99.90;;;;;;4988850;28;20835;-64
2023/04/14 03:52:40;;;;;;;1.00;0.70;;;7.10;99.90;;;;;;4989930;28;20213;-64
2023/04/14 03:55:11;;;;;;;1.70;0.90;;;7.10;99.90;;;;;;4987811;28;20319;-64
2023/04/14 03:57:40;;;;;;;1.00;0.80;;;7.10;99.90;;;;;;4989689;28;20216;-64
2023/04/14 04:00:10;;;;;;;1.17;0.98;;;7.20;99.90;;;;;;4987952;28;20743;-64
2023/04/14 04:02:38;;;;;;;1.20;0.90;;;7.20;99.90;;;;;;4989089;28;20680;-63
2023/04/14 04:05:09;;;;;;;1.00;0.90;;;7.20;99.90;;;;;;4989488;28;20717;-64
2023/04/14 04:07:40;;;;;;;0.60;0.60;;;7.20;99.90;;;;;;4982549;28;20301;-64
2023/04/14 04:10:09;;;;;;;0.80;0.60;;;7.10;99.90;;;;;;4985954;28;20747;-64
2023/04/14 04:12:38;;;;;;;1.02;0.75;;;7.00;99.90;;;;;;4985868;28;20312;-64
2023/04/14 04:15:08;;;;;;;0.60;0.50;;;6.80;99.90;;;;;;4989477;28;20641;-64
2023/04/14 04:17:37;;;;;;;0.77;0.52;;;6.70;99.90;;;;;;4997137;28;20632;-64
2023/04/14 04:20:09;;;;;;;1.50;0.95;;;6.70;99.90;;;;;;4996221;28;20204;-64
2023/04/14 04:22:40;;;;;;;0.70;0.52;;;6.80;99.90;;;;;;4996058;28;20557;-65
2023/04/14 04:25:10;;;;;;;1.60;0.80;;;6.90;99.90;;;;;;4995129;28;20708;-65
2023/04/14 04:27:38;;;;;;;0.68;0.60;;;6.90;99.90;;;;;;4993817;28;20836;-65
2023/04/14 04:30:08;;;;;;;1.55;0.82;;;6.90;99.90;;;;;;4993448;28;20216;-64
2023/04/14 04:32:36;;;;;;;0.90;0.60;;;6.90;99.90;;;;;;4990341;28;20266;-64
2023/04/14 04:35:06;;;;;;;0.82;0.70;;;7.00;99.90;;;;;;4995882;28;20581;-64
2023/04/14 04:37:38;;;;;;;0.60;0.57;;;6.90;99.90;;;;;;4992964;28;20292;-64
2023/04/14 04:40:08;;;;;;;0.80;0.60;;;6.90;99.90;;;;;;4992984;28;20204;-64
2023/04/14 04:42:40;;;;;;;0.80;0.70;;;6.90;99.90;;;;;;4993999;28;20296;-64
2023/04/14 04:45:09;;;;;;;1.00;0.90;;;6.90;99.90;;;;;;4995344;28;20243;-64
2023/04/14 04:47:37;;;;;;;0.60;0.50;;;6.90;99.90;;;;;;4993676;28;20299;-64
2023/04/14 04:50:06;;;;;;;0.60;0.50;;;6.90;99.90;;;;;;4991242;28;20221;-64
2023/04/14 04:52:35;;;;;;;1.02;0.65;;;6.90;99.90;;;;;;4994273;28;20215;-64
2023/04/14 04:55:04;;;;;;;0.70;0.60;;;6.80;99.90;;;;;;4993897;28;20294;-64
2023/04/14 04:57:32;;;;;;;0.85;0.70;;;6.90;99.90;;;;;;4992158;28;20250;-65
2023/04/14 05:00:00;;;;;;;0.60;0.45;;;6.80;99.90;;;;;;4996010;28;20218;-64
2023/04/14 05:02:27;;;;;;;0.70;0.52;;;6.90;99.90;;;;;;4988537;28;20213;-65
2023/04/14 05:04:56;;;;;;;0.50;0.40;;;6.90;99.90;;;;;;4994860;28;20701;-65
2023/04/14 05:07:24;;;;;;;1.25;0.77;;;6.80;99.90;;;;;;4996670;28;20229;-64
2023/04/14 05:09:53;;;;;;;1.13;1.02;;;6.80;99.90;;;;;;4990600;28;20704;-64
2023/04/14 05:12:21;;;;;;;0.70;0.60;;;6.90;99.90;;;;;;4997358;28;20586;-64
2023/04/14 05:14:49;;;;;;;0.50;0.40;;;6.90;99.90;;;;;;5000504;28;20319;-62
2023/04/14 05:17:17;;;;;;;0.50;0.40;;;7.00;99.90;;;;;;4989295;28;20287;-63
2023/04/14 05:19:45;;;;;;;0.60;0.50;;;7.00;99.90;;;;;;4997043;28;20285;-63
2023/04/14 05:22:13;;;;;;;1.08;0.60;;;7.10;99.90;;;;;;4996457;28;20227;-64
2023/04/14 05:24:40;;;;;;;0.80;0.40;;;7.10;99.90;;;;;;4996827;28;20274;-64
2023/04/14 05:27:09;;;;;;;1.13;0.70;;;7.10;99.90;;;;;;4994354;28;20206;-63
2023/04/14 05:29:41;;;;;;;0.70;0.40;;;7.10;99.90;;;;;;4998844;28;20233;-63
2023/04/14 05:32:10;;;;;;;0.50;0.40;;;7.10;99.90;;;;;;4987726;28;20208;-63
2023/04/14 05:34:38;;;;;;;0.60;0.45;;;7.10;99.90;;;;;;4994825;28;20689;-63
2023/04/14 05:37:06;;;;;;;1.23;0.63;;;7.10;99.90;;;;;;4994216;28;20213;-62
2023/04/14 05:39:34;;;;;;;1.35;0.98;;;7.20;99.90;;;;;;4997160;28;20299;-64
2023/04/14 05:42:01;;;;;;;0.60;0.50;;;7.40;99.90;;;;;;4992769;28;20224;-64
2023/04/14 05:44:31;;;;;;;1.08;0.80;;;7.40;99.90;;;;;;4996524;28;20288;-64
2023/04/14 05:46:58;;;;;;;0.90;0.63;;;7.50;99.90;;;;;;4995296;28;20686;-64
2023/04/14 05:49:27;;;;;;;1.30;0.90;;;7.40;99.90;;;;;;4988498;28;20231;-63
2023/04/14 05:51:54;;;;;;;0.98;0.88;;;7.50;99.90;;;;;;4992593;28;20671;-63
2023/04/14 05:54:22;;;;;;;1.23;0.80;;;7.50;99.90;;;;;;4992623;28;20210;-63
2023/04/14 05:56:50;;;;;;;1.45;1.35;;;7.50;99.90;;;;;;4993256;28;20299;-63
2023/04/14 05:59:18;;;;;;;0.88;0.85;;;7.60;99.90;;;;;;4992996;28;20287;-63
2023/04/14 06:01:47;;;;;;;1.73;1.30;;;7.70;99.90;;;;;;4992622;28;20287;-64
2023/04/14 06:04:15;;;;;;;0.80;0.70;;;7.60;99.90;;;;;;4987520;28;20296;-64
2023/04/14 06:06:44;;;;;;;2.38;1.40;;;7.60;99.90;;;;;;4993087;28;20233;-63
2023/04/14 06:09:11;;;;;;;0.95;0.82;;;7.80;99.90;;;;;;4991792;28;20224;-64
2023/04/14 06:11:39;;;;;;;3.30;2.15;;;7.90;99.90;;;;;;4993343;28;20212;-63
2023/04/14 06:14:07;;;;;;;0.70;0.70;;;7.90;99.90;;;;;;4993271;28;20210;-63
2023/04/14 06:16:35;;;;;;;1.85;1.17;;;7.90;99.90;;;;;;5000155;28;20237;-63
2023/04/14 06:19:05;;;;;;;1.30;1.20;;;7.80;99.90;;;;;;4992880;28;20213;-65
2023/04/14 06:21:32;;;;;;;2.33;1.58;;;7.80;99.90;;;;;;4993284;28;20579;-63
2023/04/14 06:24:00;;;;;;;0.90;0.90;;;7.70;99.90;;;;;;4992006;28;20288;-63
2023/04/14 06:26:28;;;;;;;1.65;1.27;;;7.80;99.90;;;;;;4992476;28;20220;-64
2023/04/14 06:28:56;;;;;;;2.53;1.58;;;7.80;99.90;;;;;;4985466;28;20359;-64
2023/04/14 06:31:24;;;;;;;0.88;0.88;;;7.80;99.90;;;;;;4992801;28;20262;-64
2023/04/14 06:33:52;;;;;;;3.10;1.30;;;7.80;99.90;;;;;;4992403;28;20205;-64
2023/04/14 06:36:21;;;;;;;2.28;1.60;;;7.60;99.90;;;;;;4991275;28;20268;-64
2023/04/14 06:38:49;;;;;;;1.23;1.10;;;7.20;99.90;;;;;;4991754;28;20224;-64
2023/04/14 06:41:17;;;;;;;1.65;1.42;;;7.00;99.90;;;;;;4995407;28;20315;-64
2023/04/14 06:43:45;;;;;;;1.85;1.10;;;6.70;99.90;;;;;;4987723;28;20343;-64
2023/04/14 06:46:13;;;;;;;2.22;1.65;;;6.60;99.90;;;;;;4992335;28;20315;-64
2023/04/14 06:48:41;;;;;;;2.88;1.75;;;6.60;99.90;;;;;;4991032;28;20214;-64
2023/04/14 06:51:11;;;;;;;1.15;1.05;;;6.90;99.90;;;;;;4985663;28;20661;-65
2023/04/14 06:53:40;;;;;;;2.80;1.60;;;6.80;99.90;;;;;;4985026;28;20810;-65
2023/04/14 06:56:08;;;;;;;3.72;1.95;;;6.80;99.90;;;;;;4994483;28;20328;-64
2023/04/14 06:58:36;;;;;;;1.48;0.80;;;6.70;99.90;;;;;;4999977;28;20246;-64
2023/04/14 07:01:04;;;;;;;2.58;2.20;;;7.00;99.90;;;;;;4989365;28;20316;-63
2023/04/14 07:03:33;;;;;;;1.63;1.52;;;7.10;99.90;;;;;;4993152;28;20231;-63
2023/04/14 07:06:05;;;;;;;1.77;1.02;;;7.20;99.90;;;;;;4997726;28;20228;-63
2023/04/14 07:08:34;;;;;;;1.45;1.35;;;7.20;99.90;;;;;;4996391;28;20262;-63
2023/04/14 07:11:04;;;;;;;3.17;2.30;;;7.40;99.90;;;;;;4992236;28;20220;-63
2023/04/14 07:13:33;;;;;;;2.40;1.63;;;7.50;99.90;;;;;;4994387;28;20241;-62
2023/04/14 07:16:05;;;;;;;1.45;0.95;;;7.30;99.90;;;;;;4990830;28;20233;-64
2023/04/14 07:18:33;;;;;;;1.58;1.23;;;7.20;99.90;;;;;;4985192;28;20206;-64
2023/04/14 07:21:01;;;;;;;2.95;2.00;;;7.40;99.90;;;;;;4982803;28;20205;-62
2023/04/14 07:23:29;;;;;;;1.95;1.52;;;7.40;99.90;;;;;;4985013;28;20304;-64
2023/04/14 07:25:58;;;;;;;2.13;1.83;;;7.30;99.90;;;;;;4986891;28;20312;-62
2023/04/14 07:28:28;;;;;;;1.45;1.08;;;7.30;99.90;;;;;;4989155;28;20580;-63
2023/04/14 07:30:56;;;;;;;1.30;1.20;;;7.30;99.90;;;;;;4984802;28;20217;-62
2023/04/14 07:33:25;;;;;;;1.20;1.10;;;7.20;99.90;;;;;;4986290;28;20217;-63
2023/04/14 07:35:54;;;;;;;2.78;1.75;;;7.20;99.90;;;;;;4984620;28;20288;-63
2023/04/14 07:38:31;;;;;;;1.25;1.02;;;7.20;99.90;;;;;;4980049;28;20558;-63
2023/04/14 07:41:00;;;;;;;2.38;1.65;;;7.10;99.90;;;;;;4986199;28;20251;-63
2023/04/14 07:43:33;;;;;;;1.55;1.10;;;7.20;99.90;;;;;;4992004;28;20265;-63
2023/04/14 07:46:03;;;;;;;1.70;1.60;;;7.10;99.90;;;;;;4982772;28;20649;-63
2023/04/14 07:48:31;;;;;;;2.10;1.90;;;7.10;99.90;;;;;;4986036;28;20292;-63
2023/04/14 07:50:59;;;;;;;2.28;1.95;;;7.10;99.90;;;;;;4982700;28;20767;-63
2023/04/14 07:53:26;;;;;;;3.20;2.33;;;7.10;99.90;;;;;;4982337;28;20288;-62
2023/04/14 07:55:54;;;;;;;2.45;2.25;;;7.20;99.90;;;;;;4981506;28;20259;-64
2023/04/14 07:58:22;;;;;;;4.22;2.58;;;7.20;99.90;;;;;;4981306;28;20298;-62
2023/04/14 08:00:54;;;;;;;3.33;1.65;;;7.30;99.90;;;;;;4985187;28;20665;-63
2023/04/14 08:03:22;;;;;;;2.95;2.22;;;7.30;99.90;;;;;;4985991;28;20251;-63
2023/04/14 08:05:51;;;;;;;2.70;2.00;;;7.30;99.90;;;;;;4982484;28;20287;-63
2023/04/14 08:08:19;;;;;;;2.55;1.85;;;7.40;99.90;;;;;;4984612;28;20235;-63
2023/04/14 08:10:47;;;;;;;1.60;1.40;;;7.50;99.90;;;;;;4983073;28;20228;-63
2023/04/14 08:13:15;;;;;;;2.58;1.90;;;7.60;99.90;;;;;;4984771;28;20230;-63
2023/04/14 08:15:43;;;;;;;1.58;1.48;;;7.50;99.90;;;;;;4984878;28;20219;-63
2023/04/14 08:18:12;;;;;;;4.05;2.25;;;7.60;99.90;;;;;;4985562;28;20209;-63
2023/04/14 08:20:40;;;;;;;2.95;1.75;;;7.60;99.90;;;;;;4983628;28;20285;-63
2023/04/14 08:23:08;;;;;;;3.13;2.05;;;7.50;99.90;;;;;;4984313;28;20209;-63
2023/04/14 08:25:36;;;;;;;2.72;2.53;;;7.60;99.90;;;;;;4982533;28;20762;-63
2023/04/14 08:28:04;;;;;;;2.60;2.25;;;7.80;99.90;;;;;;4985591;28;20254;-63
2023/04/14 08:30:32;;;;;;;3.30;2.88;;;7.90;99.90;;;;;;4979024;28;20598;-63
2023/04/14 08:33:00;;;;;;;3.22;2.08;;;8.00;99.90;;;;;;4984137;28;20436;-63
2023/04/14 08:35:29;;;;;;;1.92;1.73;;;8.10;99.90;;;;;;4978920;28;20798;-63
2023/04/14 08:38:08;;;;;;;3.25;2.95;;;8.20;99.90;;;;;;4983511;28;20209;-63
2023/04/14 08:40:38;;;;;;;2.30;2.00;;;8.30;99.90;;;;;;4982874;28;20251;-63
2023/04/14 08:43:06;;;;;;;4.35;3.38;;;8.30;99.90;;;;;;4985172;28;20224;-63
2023/04/14 08:45:35;;;;;;;1.25;1.13;;;8.50;99.90;;;;;;4982655;28;20234;-63
2023/04/14 08:48:04;;;;;;;2.15;1.95;;;8.60;99.90;;;;;;4982945;28;20262;-62
2023/04/14 08:50:37;;;;;;;2.00;1.83;;;8.70;99.90;;;;;;4984295;28;20206;-63
2023/04/14 08:53:09;;;;;;;2.10;1.80;;;8.90;99.90;;;;;;4980299;28;20624;-62
2023/04/14 08:55:41;;;;;;;4.32;2.28;;;9.10;99.90;;;;;;4986294;28;20236;-63
2023/04/14 08:58:10;;;;;;;2.55;2.08;;;9.40;99.90;;;;;;4990307;28;20219;-63
2023/04/14 09:00:38;;;;;;;1.90;1.25;;;9.50;99.90;;;;;;4991224;28;20592;-63
2023/04/14 09:03:07;;;;;;;1.38;1.23;;;9.90;99.90;;;;;;4992810;28;20213;-63
2023/04/14 09:05:37;;;;;;;1.75;1.65;;;10.30;99.90;;;;;;4993563;28;20253;-63
2023/04/14 09:08:05;;;;;;;1.15;1.05;;;10.60;99.90;;;;;;4993659;28;20911;-63
2023/04/14 09:10:34;;;;;;;1.70;1.25;;;10.60;99.90;;;;;;4993840;28;20198;-62
2023/04/14 09:13:05;;;;;;;1.95;1.75;;;10.70;99.90;;;;;;4990929;28;20321;-63
2023/04/14 09:15:33;;;;;;;0.80;0.70;;;10.90;99.90;;;;;;4987252;28;20226;-63
2023/04/14 09:18:01;;;;;;;1.55;1.45;;;11.30;99.90;;;;;;4992221;28;20316;-63
2023/04/14 09:20:29;;;;;;;5.07;1.80;;;11.60;99.90;;;;;;4989221;28;20211;-63
2023/04/14 09:23:08;;;;;;;1.05;0.95;;;11.90;99.90;;;;;;4991617;28;20701;-64
2023/04/14 09:25:37;;;;;;;1.60;1.50;;;12.30;99.90;;;;;;4993996;28;20645;-64
2023/04/14 09:28:05;;;;;;;1.10;1.00;;;12.50;99.90;;;;;;4993039;28;20202;-64
2023/04/14 09:30:33;;;;;;;0.90;0.80;;;12.60;99.90;;;;;;4993785;28;20244;-63
2023/04/14 09:33:04;;;;;;;0.95;0.95;;;12.50;99.90;;;;;;4992663;28;20236;-63
2023/04/14 09:35:43;;;;;;;0.85;0.80;;;12.40;99.90;;;;;;4991754;28;20256;-62
2023/04/14 09:38:12;;;;;;;2.13;1.90;;;12.40;99.90;;;;;;4987791;28;20237;-63
2023/04/14 09:40:43;;;;;;;1.15;1.02;;;12.40;99.90;;;;;;4991079;28;20686;-63
2023/04/14 09:43:23;;;;;;;1.27;0.60;;;12.70;99.90;;;;;;4994231;28;20281;-63
2023/04/14 09:45:51;;;;;;;0.73;0.73;;;13.20;99.90;;;;;;4994786;28;20225;-62
2023/04/14 09:48:20;;;;;;;1.95;1.30;;;13.40;99.90;;;;;;5000961;28;20285;-63
2023/04/14 09:50:59;;;;;;;1.42;1.33;;;13.80;99.90;;;;;;4996044;28;20288;-63
2023/04/14 09:53:33;;;;;;;2.75;2.38;;;14.00;99.90;;;;;;4997828;28;20203;-63
2023/04/14 09:56:03;;;;;;;2.45;2.25;;;14.20;99.90;;;;;;4997283;28;20713;-64
2023/04/14 09:58:33;;;;;;;1.20;1.10;;;14.60;99.90;;;;;;5001936;28;20623;-64
2023/04/14 10:01:03;;;;;;;0.90;0.65;;;15.10;99.90;;;;;;5000697;28;20240;-65
2023/04/14 10:03:38;;;;;;;1.70;0.95;;;15.10;99.90;;;;;;5000909;28;20213;-64
2023/04/14 10:06:08;;;;;;;0.98;0.88;;;15.20;99.90;;;;;;5001357;28;20225;-64
2023/04/14 10:08:43;;;;;;;0.65;0.57;;;15.10;99.90;;;;;;5002449;28;20659;-65
2023/04/14 10:11:19;;;;;;;1.95;1.25;;;14.90;99.90;;;;;;5000026;28;20694;-64
2023/04/14 10:13:47;;;;;;;1.20;1.10;;;15.10;99.90;;;;;;5000626;28;20677;-64
2023/04/14 10:16:15;;;;;;;0.60;0.50;;;15.00;99.90;;;;;;4999878;28;20256;-64
2023/04/14 10:18:44;;;;;;;0.70;0.60;;;15.10;99.90;;;;;;5001721;28;20261;-64
2023/04/14 10:21:12;;;;;;;1.33;1.23;;;15.40;99.90;;;;;;4999568;28;20260;-64
2023/04/14 10:23:42;;;;;;;1.05;0.60;;;15.20;99.90;;;;;;4991644;28;20220;-64
2023/04/14 10:26:12;;;;;;;0.50;0.40;;;15.50;99.90;;;;;;4992594;28;20234;-65
2023/04/14 10:28:43;;;;;;;0.80;0.70;;;15.60;99.90;;;;;;4997291;28;20306;-64
2023/04/14 10:31:17;;;;;;;0.60;0.50;;;15.80;99.90;;;;;;4992741;28;20202;-66
2023/04/14 10:33:45;;;;;;;1.95;0.93;;;15.80;99.90;;;;;;4997439;28;20332;-64
2023/04/14 10:36:23;;;;;;;1.90;1.23;;;16.00;99.90;;;;;;4990856;28;20326;-64
2023/04/14 10:38:59;;;;;;;0.60;0.50;;;16.40;99.90;;;;;;4993187;28;20922;-65
2023/04/14 10:41:36;;;;;;;0.60;0.57;;;16.90;99.90;;;;;;4989291;28;20225;-65
2023/04/14 10:44:04;;;;;;;1.13;0.77;;;16.90;99.90;;;;;;4990330;28;20285;-65
2023/04/14 10:46:43;;;;;;;0.80;0.60;;;17.20;99.90;;;;;;4988531;28;20257;-64
2023/04/14 10:49:12;;;;;;;0.60;0.50;;;16.60;99.90;;;;;;4991859;28;20268;-65
2023/04/14 10:51:40;;;;;;;0.90;0.60;;;17.20;99.90;;;;;;4994385;28;20745;-64
2023/04/14 10:54:16;;;;;;;1.00;0.82;;;17.30;99.90;;;;;;4994901;28;20229;-64
2023/04/14 10:57:08;;;;;;;1.30;1.20;;;17.30;99.90;;;;;;4998336;28;20311;-64
2023/04/14 10:59:36;;;;;;;0.60;0.50;;;17.80;99.90;;;;;;4990224;28;20237;-65
2023/04/14 11:02:03;;;;;;;1.20;0.93;;;18.30;99.90;;;;;;4993106;28;20284;-63
2023/04/14 11:04:31;;;;;;;0.50;0.40;;;18.60;99.90;;;;;;4989727;28;20606;-64
2023/04/14 11:07:08;;;;;;;0.50;0.40;;;18.50;99.90;;;;;;4987927;28;20239;-64
2023/04/14 11:09:37;;;;;;;0.50;0.30;;;18.60;99.90;;;;;;4985374;28;20205;-65
2023/04/14 11:12:23;;;;;;;0.60;0.40;;;18.90;99.90;;;;;;4991584;28;20295;-64
2023/04/14 11:14:55;;;;;;;0.70;0.60;;;19.10;99.90;;;;;;4981509;28;20599;-65
2023/04/14 11:17:23;;;;;;;1.30;0.60;;;19.00;99.90;;;;;;4983078;28;20336;-66
2023/04/14 11:19:54;;;;;;;0.50;0.35;;;19.10;99.90;;;;;;4986593;28;20221;-64
2023/04/14 11:22:40;;;;;;;0.50;0.40;;;19.40;99.50;;;;;;4996675;28;20280;-64
2023/04/14 11:25:11;;;;;;;0.60;0.60;;;19.70;99.30;;;;;;4987953;28;20222;-65
2023/04/14 11:27:40;;;;;;;0.70;0.70;;;19.40;98.80;;;;;;4983936;28;20248;-65
2023/04/14 11:30:13;;;;;;;0.63;0.63;;;19.30;98.40;;;;;;4983004;28;20292;-65
2023/04/14 11:32:46;;;;;;;0.57;0.40;;;19.30;99.00;;;;;;4981398;28;20230;-65
2023/04/14 11:35:14;;;;;;;0.80;0.70;;;19.40;99.00;;;;;;4985338;28;20253;-65
2023/04/14 11:37:43;;;;;;;0.90;0.73;;;19.60;99.30;;;;;;4988511;28;20298;-64
2023/04/14 11:40:13;;;;;;;0.70;0.50;;;19.90;98.10;;;;;;4982366;28;20214;-64
2023/04/14 11:42:45;;;;;;;0.93;0.90;;;20.20;97.60;;;;;;4985669;28;20201;-64
2023/04/14 11:45:15;;;;;;;0.88;0.47;;;20.40;97.20;;;;;;4984311;28;20280;-65
2023/04/14 11:47:47;;;;;;;0.90;0.50;;;20.80;96.00;;;;;;4986242;28;20293;-64
2023/04/14 11:50:17;;;;;;;0.80;0.50;;;21.00;94.90;;;;;;4983027;28;20295;-64
2023/04/14 11:52:46;;;;;;;1.48;0.80;;;21.10;95.70;;;;;;4980944;28;20222;-65
2023/04/14 11:55:16;;;;;;;0.80;0.80;;;21.00;93.20;;;;;;4980418;28;20308;-65
2023/04/14 11:57:45;;;;;;;0.57;0.40;;;21.10;92.60;;;;;;4984185;28;20574;-65
2023/04/14 12:00:14;;;;;;;1.08;0.80;;;20.40;91.50;;;;;;4982329;28;20652;-65
2023/04/14 12:02:44;;;;;;;0.68;0.40;;;19.50;93.30;;;;;;4985853;28;20265;-65
2023/04/14 12:05:13;;;;;;;0.60;0.50;;;18.90;94.90;;;;;;4978046;28;20227;-64
2023/04/14 12:07:43;;;;;;;0.90;0.70;;;18.40;93.90;;;;;;4984570;28;20209;-64
2023/04/14 12:10:12;;;;;;;0.68;0.40;;;18.20;95.10;;;;;;4986706;28;20267;-64
2023/04/14 12:12:41;;;;;;;0.50;0.30;;;19.00;95.70;;;;;;4983012;28;20273;-64
2023/04/14 12:15:12;;;;;;;0.55;0.38;;;19.50;92.60;;;;;;4985541;28;20305;-65
2023/04/14 12:17:40;;;;;;;1.58;1.20;;;20.00;93.50;;;;;;4991914;28;20201;-65
2023/04/14 12:20:15;;;;;;;0.60;0.60;;;20.50;92.50;;;;;;4991988;28;20197;-65
2023/04/14 12:22:43;;;;;;;0.63;0.60;;;20.70;92.10;;;;;;4996214;28;20904;-65
2023/04/14 12:25:11;;;;;;;1.02;0.68;;;20.70;91.30;;;;;;4997348;28;20613;-65
2023/04/14 12:27:41;;;;;;;0.70;0.50;;;20.90;90.40;;;;;;5001070;28;20650;-65
2023/04/14 12:30:09;;;;;;;1.25;0.93;;;21.20;91.70;;;;;;4996068;28;20201;-65
2023/04/14 12:32:40;;;;;;;0.50;0.30;;;21.40;90.90;;;;;;5000816;28;20217;-65
2023/04/14 12:35:09;;;;;;;0.60;0.50;;;21.70;81.30;;;;;;5001900;28;20291;-65
2023/04/14 12:37:40;;;;;;;0.75;0.50;;;21.90;83.60;;;;;;5005655;28;20264;-65
2023/04/14 12:40:09;;;;;;;0.55;0.40;;;22.20;87.00;;;;;;5006426;28;20233;-65
2023/04/14 12:42:50;;;;;;;0.50;0.30;;;22.40;88.10;;;;;;5005366;28;20264;-64
2023/04/14 12:45:18;;;;;;;0.52;0.40;;;23.10;83.20;;;;;;4997294;28;20218;-65
2023/04/14 12:47:53;;;;;;;0.60;0.40;;;23.50;84.30;;;;;;5002902;28;20282;-65
2023/04/14 12:50:26;;;;;;;0.60;0.50;;;24.10;83.10;;;;;;5001549;28;20207;-65
2023/04/14 12:52:55;;;;;;;0.60;0.43;;;24.30;83.60;;;;;;5002905;28;20251;-65
2023/04/14 12:55:24;;;;;;;0.77;0.55;;;24.10;78.50;;;;;;5001053;28;20227;-65
2023/04/14 12:57:53;;;;;;;0.50;0.30;;;23.60;79.50;;;;;;5001470;28;20265;-65
2023/04/14 13:00:22;;;;;;;0.60;0.40;;;23.30;79.20;;;;;;5000909;28;20235;-64
2023/04/14 13:02:50;;;;;;;0.60;0.40;;;23.50;74.90;;;;;;5001420;28;20210;-65
2023/04/14 13:05:19;;;;;;;0.55;0.40;;;23.30;78.00;;;;;;5001277;28;20225;-64
2023/04/14 13:07:47;;;;;;;0.50;0.40;;;23.40;73.40;;;;;;5002165;28;20285;-66